createdAt,value
2024-01-07T00:00:53.631Z,101354.78
2024-01-07T00:03:21.773Z,101344.50
2024-01-07T00:05:49.845Z,101345.97
2024-01-07T00:08:19.285Z,101349.03
2024-01-07T00:10:47.395Z,101351.06
2024-01-07T00:13:15.500Z,101353.97
2024-01-07T00:15:44.441Z,101340.03
2024-01-07T00:18:12.548Z,101363.44
2024-01-07T00:20:43.453Z,101356.03
2024-01-07T00:23:12.470Z,101349.88
2024-01-07T00:25:41.796Z,101366.75
2024-01-07T00:28:09.669Z,101372.50
2024-01-07T00:30:37.965Z,101374.91
2024-01-07T00:33:06.551Z,101376.75
2024-01-07T00:35:34.611Z,101376.78
2024-01-07T00:38:02.629Z,101379.03
2024-01-07T00:40:30.736Z,101367.56
2024-01-07T00:43:00.095Z,101371.25
2024-01-07T00:45:28.471Z,101395.25
2024-01-07T00:47:57.035Z,101398.75
2024-01-07T00:50:25.073Z,101401.44
2024-01-07T00:52:53.112Z,101409.41
2024-01-07T00:55:23.443Z,101417.22
2024-01-07T00:57:50.682Z,101421.31
2024-01-07T01:00:22.044Z,101421.31
2024-01-07T01:02:50.199Z,101430.75
2024-01-07T01:05:18.558Z,101436.50
2024-01-07T01:07:46.541Z,101432.16
2024-01-07T01:10:17.891Z,101430.31
2024-01-07T01:12:46.010Z,101433.41
2024-01-07T01:15:14.139Z,101435.66
2024-01-07T01:17:43.530Z,101432.16
2024-01-07T01:20:13.082Z,101444.66
2024-01-07T01:22:41.074Z,101444.22
2024-01-07T01:25:09.864Z,101440.13
2024-01-07T01:27:38.043Z,101445.66
2024-01-07T01:30:07.604Z,101450.56
2024-01-07T01:32:35.718Z,101450.97
2024-01-07T01:35:07.134Z,101462.22
2024-01-07T01:37:35.104Z,101451.75
2024-01-07T01:40:03.310Z,101468.13
2024-01-07T01:42:31.426Z,101468.78
2024-01-07T01:45:02.522Z,101482.69
2024-01-07T01:47:32.176Z,101470.16
2024-01-07T01:50:01.177Z,101471.16
2024-01-07T01:52:31.100Z,101477.75
2024-01-07T01:55:00.186Z,101482.63
2024-01-07T01:57:35.873Z,101485.72
2024-01-07T02:00:06.339Z,101478.53
2024-01-07T02:02:36.010Z,101478.31
2024-01-07T02:05:05.065Z,101475.19
2024-01-07T02:07:34.935Z,101482.19
2024-01-07T02:10:05.360Z,101480.97
2024-01-07T02:12:33.376Z,101490.34
2024-01-07T02:15:01.347Z,101487.50
2024-01-07T02:17:29.568Z,101485.41
2024-01-07T02:19:57.841Z,101491.53
2024-01-07T02:22:25.875Z,101491.13
2024-01-07T02:24:55.358Z,101495.91
2024-01-07T02:27:23.470Z,101503.94
2024-01-07T02:29:51.686Z,101495.72
2024-01-07T02:32:19.665Z,101500.19
2024-01-07T02:34:48.196Z,101503.91
2024-01-07T02:37:16.258Z,101497.94
2024-01-07T02:39:50.211Z,101504.53
2024-01-07T02:42:25.727Z,101501.78
2024-01-07T02:44:53.741Z,101503.47
2024-01-07T02:47:21.780Z,101509.75
2024-01-07T02:49:49.937Z,101518.09
2024-01-07T02:52:17.960Z,101510.06
2024-01-07T02:54:45.989Z,101512.19
2024-01-07T02:57:14.034Z,101506.78
2024-01-07T02:59:43.446Z,101524.34
2024-01-07T03:02:11.485Z,101515.28
2024-01-07T03:04:39.515Z,101522.75
2024-01-07T03:07:07.928Z,101527.22
2024-01-07T03:09:36.134Z,101520.91
2024-01-07T03:12:04.612Z,101529.81
2024-01-07T03:14:32.558Z,101528.22
2024-01-07T03:17:02.017Z,101524.53
2024-01-07T03:19:30.185Z,101537.47
2024-01-07T03:21:59.094Z,101524.72
2024-01-07T03:24:27.272Z,101525.06
2024-01-07T03:26:55.440Z,101537.81
2024-01-07T03:29:23.406Z,101537.59
2024-01-07T03:31:51.981Z,101550.34
2024-01-07T03:34:21.507Z,101541.75
2024-01-07T03:36:49.597Z,101549.72
2024-01-07T03:39:17.547Z,101549.50
2024-01-07T03:41:45.521Z,101559.72
2024-01-07T03:44:13.658Z,101556.44
2024-01-07T03:46:41.962Z,101559.94
2024-01-07T03:49:09.929Z,101560.72
2024-01-07T03:51:39.504Z,101571.19
2024-01-07T03:54:07.834Z,101571.97
2024-01-07T03:56:36.063Z,101568.66
2024-01-07T03:59:04.376Z,101578.03
2024-01-07T04:01:32.403Z,101573.09
2024-01-07T04:04:00.526Z,101577.28
2024-01-07T04:06:28.720Z,101585.78
2024-01-07T04:08:58.088Z,101587.09
2024-01-07T04:11:26.115Z,101587.28
2024-01-07T04:13:54.492Z,101590.09
2024-01-07T04:16:22.811Z,101594.97
2024-01-07T04:18:53.824Z,101595.53
2024-01-07T04:21:22.576Z,101596.16
2024-01-07T04:23:50.692Z,101591.09
2024-01-07T04:26:20.056Z,101606.59
2024-01-07T04:28:48.250Z,101606.75
2024-01-07T04:31:16.583Z,101583.22
2024-01-07T04:33:44.796Z,101608.00
2024-01-07T04:36:12.870Z,101610.28
2024-01-07T04:38:40.912Z,101617.91
2024-01-07T04:41:09.041Z,101619.91
2024-01-07T04:43:39.037Z,101614.44
2024-01-07T04:46:07.643Z,101612.00
2024-01-07T04:48:35.983Z,101622.06
2024-01-07T04:51:04.172Z,101622.31
2024-01-07T04:53:32.189Z,101622.84
2024-01-07T04:56:00.214Z,101627.84
2024-01-07T04:58:28.252Z,101616.91
2024-01-07T05:00:57.767Z,101610.97
2024-01-07T05:03:25.848Z,101622.50
2024-01-07T05:05:54.042Z,101625.41
2024-01-07T05:08:24.963Z,101633.66
2024-01-07T05:10:54.561Z,101629.59
2024-01-07T05:13:22.734Z,101633.41
2024-01-07T05:15:54.793Z,101637.78
2024-01-07T05:18:25.889Z,101637.41
2024-01-07T05:20:54.472Z,101647.03
2024-01-07T05:23:22.612Z,101638.59
2024-01-07T05:25:50.768Z,101641.09
2024-01-07T05:28:20.284Z,101641.66
2024-01-07T05:30:48.757Z,101641.25
2024-01-07T05:33:16.985Z,101643.03
2024-01-07T05:35:46.520Z,101646.06
2024-01-07T05:38:14.763Z,101649.75
2024-01-07T05:40:42.967Z,101658.53
2024-01-07T05:43:11.138Z,101660.84
2024-01-07T05:45:39.385Z,101660.63
2024-01-07T05:48:09.325Z,101663.13
2024-01-07T05:50:37.434Z,101671.53
2024-01-07T05:53:06.848Z,101674.50
2024-01-07T05:55:34.973Z,101670.22
2024-01-07T05:58:03.078Z,101671.00
2024-01-07T06:00:31.212Z,101679.56
2024-01-07T06:02:59.571Z,101687.00
2024-01-07T06:05:28.536Z,101680.28
2024-01-07T06:07:56.629Z,101674.31
2024-01-07T06:10:26.205Z,101685.81
2024-01-07T06:12:54.345Z,101690.91
2024-01-07T06:15:22.435Z,101693.00
2024-01-07T06:17:50.830Z,101690.13
2024-01-07T06:20:18.957Z,101691.59
2024-01-07T06:22:46.957Z,101688.94
2024-01-07T06:25:15.517Z,101696.38
2024-01-07T06:27:45.345Z,101691.94
2024-01-07T06:30:14.694Z,101701.41
2024-01-07T06:32:42.869Z,101694.53
2024-01-07T06:35:11.099Z,101691.88
2024-01-07T06:37:39.104Z,101697.63
2024-01-07T06:40:08.479Z,101701.72
2024-01-07T06:42:36.528Z,101707.91
2024-01-07T06:45:07.557Z,101710.13
2024-01-07T06:47:35.600Z,101704.09
2024-01-07T06:50:03.864Z,101709.91
2024-01-07T06:52:32.306Z,101715.06
2024-01-07T06:55:00.451Z,101733.34
2024-01-07T06:57:28.710Z,101720.00
2024-01-07T06:59:56.904Z,101729.59
2024-01-07T07:02:26.403Z,101739.22
2024-01-07T07:04:54.717Z,101732.50
2024-01-07T07:07:22.868Z,101739.84
2024-01-07T07:09:51.443Z,101738.66
2024-01-07T07:12:19.603Z,101745.06
2024-01-07T07:14:47.874Z,101743.06
2024-01-07T07:17:16.230Z,101736.28
2024-01-07T07:19:46.212Z,101746.69
2024-01-07T07:22:14.839Z,101749.28
2024-01-07T07:24:43.874Z,101754.38
2024-01-07T07:27:12.306Z,101761.75
2024-01-07T07:29:40.452Z,101758.25
2024-01-07T07:32:09.431Z,101771.50
2024-01-07T07:34:38.148Z,101764.97
2024-01-07T07:37:07.967Z,101773.22
2024-01-07T07:39:36.195Z,101775.03
2024-01-07T07:42:04.627Z,101779.56
2024-01-07T07:44:33.171Z,101781.19
2024-01-07T07:47:01.894Z,101776.09
2024-01-07T07:49:30.054Z,101787.63
2024-01-07T07:51:59.258Z,101785.19
2024-01-07T07:54:28.701Z,101798.41
2024-01-07T07:56:56.889Z,101796.84
2024-01-07T07:59:25.281Z,101802.03
2024-01-07T08:01:53.603Z,101799.25
2024-01-07T08:04:21.704Z,101804.88
2024-01-07T08:06:49.832Z,101809.69
2024-01-07T08:09:17.942Z,101811.94
2024-01-07T08:11:47.426Z,101802.06
2024-01-07T08:14:15.630Z,101807.81
2024-01-07T08:16:43.916Z,101798.41
2024-01-07T08:19:12.215Z,101817.16
2024-01-07T08:21:40.427Z,101813.91
2024-01-07T08:24:08.748Z,101819.25
2024-01-07T08:26:36.775Z,101816.00
2024-01-07T08:29:06.550Z,101818.16
2024-01-07T08:31:35.195Z,101818.16
2024-01-07T08:34:03.682Z,101821.91
2024-01-07T08:36:31.806Z,101824.00
2024-01-07T08:38:59.984Z,101824.19
2024-01-07T08:41:28.236Z,101822.34
2024-01-07T08:43:56.576Z,101826.13
2024-01-07T08:46:26.140Z,101813.78
2024-01-07T08:48:54.369Z,101807.19
2024-01-07T08:51:22.546Z,101821.94
2024-01-07T08:53:50.979Z,101823.22
2024-01-07T08:56:19.157Z,101800.59
2024-01-07T08:58:47.315Z,101828.84
2024-01-07T09:01:15.521Z,101827.81
2024-01-07T09:03:45.083Z,101843.13
2024-01-07T09:06:13.141Z,101828.94
2024-01-07T09:08:41.185Z,101835.88
2024-01-07T09:13:41.150Z,101842.59
2024-01-07T09:16:13.075Z,101838.41
2024-01-07T09:18:42.201Z,101842.47
2024-01-07T09:21:12.585Z,101848.66
2024-01-07T09:23:40.888Z,101848.41
2024-01-07T09:26:09.331Z,101842.03
2024-01-07T09:28:38.868Z,101832.47
2024-01-07T09:31:07.704Z,101843.44
2024-01-07T09:33:36.314Z,101824.91
2024-01-07T09:36:10.857Z,101834.34
2024-01-07T09:38:50.301Z,101833.16
2024-01-07T09:41:18.812Z,101822.81
2024-01-07T09:43:47.450Z,101851.88
2024-01-07T09:46:16.711Z,101844.91
2024-01-07T09:48:45.203Z,101848.41
2024-01-07T09:51:14.513Z,101845.06
2024-01-07T09:53:46.874Z,101860.72
2024-01-07T09:56:28.544Z,101835.16
2024-01-07T09:58:56.946Z,101841.75
2024-01-07T10:01:27.159Z,101852.06
2024-01-07T10:03:55.675Z,101856.63
2024-01-07T10:06:24.007Z,101842.22
2024-01-07T10:08:52.827Z,101842.28
2024-01-07T10:11:24.660Z,101840.00
2024-01-07T10:13:53.368Z,101846.38
2024-01-07T10:16:21.999Z,101833.63
2024-01-07T10:18:50.364Z,101838.78
2024-01-07T10:21:18.553Z,101834.91
2024-01-07T10:23:46.751Z,101841.03
2024-01-07T10:26:23.480Z,101832.41
2024-01-07T10:28:57.273Z,101824.97
2024-01-07T10:31:28.124Z,101839.38
2024-01-07T10:33:59.957Z,101816.94
2024-01-07T10:36:28.478Z,101827.47
2024-01-07T10:38:57.161Z,101815.75
2024-01-07T10:41:29.303Z,101824.19
2024-01-07T10:43:59.039Z,101834.47
2024-01-07T10:46:32.002Z,101827.06
2024-01-07T10:49:09.835Z,101829.09
2024-01-07T10:51:39.010Z,101820.44
2024-01-07T10:54:09.108Z,101814.50
2024-01-07T10:56:47.572Z,101820.88
2024-01-07T10:59:22.618Z,101818.81
2024-01-07T11:01:51.058Z,101823.34
2024-01-07T11:04:30.616Z,101796.19
2024-01-07T11:07:14.697Z,101815.94
2024-01-07T11:10:00.389Z,101818.00
2024-01-07T11:12:30.477Z,101812.63
2024-01-07T11:15:00.090Z,101822.09
2024-01-07T11:17:46.953Z,101829.72
2024-01-07T11:20:28.004Z,101834.22
2024-01-07T11:23:30.070Z,101830.56
2024-01-07T11:26:00.205Z,101834.06
2024-01-07T11:28:53.892Z,101827.44
2024-01-07T11:31:48.919Z,101823.09
2024-01-07T11:34:48.818Z,101829.69
2024-01-07T11:37:17.598Z,101801.69
2024-01-07T11:39:46.473Z,101822.91
2024-01-07T11:42:15.289Z,101816.94
2024-01-07T11:44:49.734Z,101817.94
2024-01-07T11:47:25.308Z,101816.91
2024-01-07T11:49:54.814Z,101811.53
2024-01-07T11:52:23.194Z,101805.19
2024-01-07T11:54:51.884Z,101805.97
2024-01-07T11:57:20.385Z,101802.91
2024-01-07T11:59:48.907Z,101798.63
2024-01-07T12:02:18.508Z,101798.22
2024-01-07T12:04:49.192Z,101799.69
2024-01-07T12:07:19.081Z,101794.50
2024-01-07T12:09:48.508Z,101798.38
2024-01-07T12:12:17.153Z,101783.53
2024-01-07T12:14:45.815Z,101793.41
2024-01-07T12:17:14.368Z,101791.50
2024-01-07T12:19:43.412Z,101786.34
2024-01-07T12:22:13.353Z,101793.16
2024-01-07T12:24:41.667Z,101786.00
2024-01-07T12:27:10.385Z,101784.19
2024-01-07T12:29:38.499Z,101793.22
2024-01-07T12:32:10.607Z,101783.88
2024-01-07T12:34:39.346Z,101780.03
2024-01-07T12:37:07.593Z,101801.44
2024-01-07T12:39:38.083Z,101800.34
2024-01-07T12:42:08.291Z,101800.16
2024-01-07T12:44:38.336Z,101800.41
2024-01-07T12:47:06.722Z,101804.25
2024-01-07T12:49:35.041Z,101811.75
2024-01-07T12:52:03.428Z,101817.09
2024-01-07T12:54:31.650Z,101808.00
2024-01-07T12:57:01.674Z,101816.63
2024-01-07T12:59:29.813Z,101815.31
2024-01-07T13:01:58.365Z,101800.94
2024-01-07T13:04:26.818Z,101795.63
2024-01-07T13:06:55.379Z,101816.16
2024-01-07T13:09:23.655Z,101800.38
2024-01-07T13:11:52.597Z,101830.63
2024-01-07T13:14:22.135Z,101817.91
2024-01-07T13:16:50.574Z,101808.81
2024-01-07T13:19:19.503Z,101837.03
2024-01-07T13:22:26.691Z,101829.81
2024-01-07T13:25:23.073Z,101803.16
2024-01-07T13:31:16.317Z,101830.31
2024-01-07T13:34:52.196Z,101776.00
2024-01-07T13:41:08.691Z,101794.94
2024-01-07T13:43:38.449Z,101825.41
2024-01-07T13:46:08.417Z,101823.34
2024-01-07T13:52:16.493Z,101802.75
2024-01-07T13:54:49.051Z,101842.91
2024-01-07T13:57:34.064Z,101842.28
2024-01-07T14:00:10.624Z,101837.56
2024-01-07T14:02:59.277Z,101849.91
2024-01-07T14:09:06.527Z,101829.09
2024-01-07T14:11:53.291Z,101847.03
2024-01-07T14:14:23.924Z,101845.75
2024-01-07T14:17:04.640Z,101845.19
2024-01-07T14:19:43.802Z,101859.19
2024-01-07T14:22:16.974Z,101844.78
2024-01-07T14:25:09.176Z,101839.81
2024-01-07T14:27:41.806Z,101851.75
2024-01-07T14:30:11.492Z,101818.63
2024-01-07T14:32:56.922Z,101809.78
2024-01-07T14:35:37.334Z,101857.91
2024-01-07T14:38:09.129Z,101859.78
2024-01-07T14:40:37.882Z,101860.41
2024-01-07T14:43:06.248Z,101867.81
2024-01-07T14:45:35.070Z,101872.75
2024-01-07T14:48:03.574Z,101869.06
2024-01-07T14:50:39.690Z,101876.25
2024-01-07T14:53:10.149Z,101879.75
2024-01-07T14:55:38.384Z,101885.13
2024-01-07T14:58:06.689Z,101853.84
2024-01-07T15:00:35.618Z,101872.97
2024-01-07T15:03:04.961Z,101846.59
2024-01-07T15:05:44.238Z,101881.84
2024-01-07T15:08:41.708Z,101888.84
2024-01-07T15:11:10.161Z,101875.63
2024-01-07T15:13:40.489Z,101881.81
2024-01-07T15:16:09.000Z,101879.97
2024-01-07T15:18:38.684Z,101884.72
2024-01-07T15:21:09.917Z,101894.16
2024-01-07T15:23:37.965Z,101898.91
2024-01-07T15:26:06.813Z,101908.38
2024-01-07T15:28:35.484Z,101897.06
2024-01-07T15:31:04.743Z,101906.31
2024-01-07T15:33:33.008Z,101902.81
2024-01-07T15:36:01.146Z,101900.53
2024-01-07T15:38:30.590Z,101901.78
2024-01-07T15:40:58.400Z,101907.38
2024-01-07T15:43:26.420Z,101912.13
2024-01-07T15:45:54.538Z,101908.16
2024-01-07T15:48:22.612Z,101913.31
2024-01-07T15:50:50.757Z,101911.47
2024-01-07T15:53:18.828Z,101903.03
2024-01-07T15:55:48.298Z,101901.19
2024-01-07T15:58:17.927Z,101914.56
2024-01-07T16:00:46.227Z,101916.84
2024-01-07T16:03:14.767Z,101920.53
2024-01-07T16:05:42.856Z,101928.53
2024-01-07T16:08:11.027Z,101925.63
2024-01-07T16:10:39.094Z,101930.38
2024-01-07T16:13:08.531Z,101924.03
2024-01-07T16:15:36.758Z,101926.03
2024-01-07T16:18:05.950Z,101929.75
2024-01-07T16:20:34.618Z,101931.41
2024-01-07T16:23:03.065Z,101925.03
2024-01-07T16:25:31.346Z,101937.16
2024-01-07T16:28:00.316Z,101947.63
2024-01-07T16:30:30.105Z,101939.22
2024-01-07T16:32:58.318Z,101943.94
2024-01-07T16:35:26.454Z,101943.13
2024-01-07T16:37:54.504Z,101955.50
2024-01-07T16:40:22.617Z,101953.47
2024-01-07T16:42:50.873Z,101966.66
2024-01-07T16:45:20.657Z,101963.75
2024-01-07T16:47:50.109Z,101972.44
2024-01-07T16:50:23.487Z,101974.47
2024-01-07T16:52:54.621Z,101971.00
2024-01-07T16:55:23.680Z,101979.47
2024-01-07T16:57:52.086Z,101976.13
2024-01-07T17:00:21.585Z,101987.84
2024-01-07T17:02:52.546Z,101987.03
2024-01-07T17:05:21.475Z,101989.94
2024-01-07T17:07:49.867Z,101985.00
2024-01-07T17:10:18.193Z,101991.94
2024-01-07T17:12:46.924Z,101985.78
2024-01-07T17:15:15.749Z,101992.50
2024-01-07T17:17:44.322Z,101996.03
2024-01-07T17:20:14.414Z,101994.34
2024-01-07T17:22:42.752Z,101998.44
2024-01-07T17:25:10.872Z,101997.84
2024-01-07T17:27:38.926Z,102004.47
2024-01-07T17:30:08.599Z,102002.44
2024-01-07T17:32:37.134Z,102006.97
2024-01-07T17:35:06.889Z,102013.16
2024-01-07T17:37:44.344Z,102013.91
2024-01-07T17:40:13.931Z,102019.53
2024-01-07T17:42:42.876Z,102016.38
2024-01-07T17:45:12.304Z,102022.34
2024-01-07T17:47:41.034Z,102023.47
2024-01-07T17:50:12.036Z,102023.72
2024-01-07T17:52:41.783Z,102033.00
2024-01-07T17:55:10.639Z,102032.75
2024-01-07T17:57:39.031Z,102039.97
2024-01-07T18:00:10.929Z,102038.69
2024-01-07T18:02:40.579Z,102047.75
2024-01-07T18:05:10.225Z,102045.53
2024-01-07T18:07:38.563Z,102050.63
2024-01-07T18:10:11.944Z,102055.25
2024-01-07T18:12:40.778Z,102058.84
2024-01-07T18:15:11.070Z,102062.03
2024-01-07T18:17:43.717Z,102064.66
2024-01-07T18:20:13.266Z,102056.56
2024-01-07T18:22:41.368Z,102072.06
2024-01-07T18:25:11.763Z,102068.22
2024-01-07T18:27:40.191Z,102071.63
2024-01-07T18:30:10.076Z,102079.44
2024-01-07T18:32:40.702Z,102069.53
2024-01-07T18:35:10.226Z,102077.69
2024-01-07T18:37:40.325Z,102070.16
2024-01-07T18:40:13.889Z,102078.94
2024-01-07T18:42:41.969Z,102076.00
2024-01-07T18:45:10.949Z,102078.81
2024-01-07T18:47:39.249Z,102083.53
2024-01-07T18:50:08.595Z,102082.00
2024-01-07T18:52:36.550Z,102071.91
2024-01-07T18:55:07.518Z,102084.06
2024-01-07T18:57:37.707Z,102074.69
2024-01-07T19:00:07.748Z,102079.72
2024-01-07T19:02:36.445Z,102085.34
2024-01-07T19:05:05.430Z,102078.63
2024-01-07T19:07:34.414Z,102089.44
2024-01-07T19:10:02.950Z,102095.75
2024-01-07T19:12:31.187Z,102112.97
2024-01-07T19:15:00.708Z,102111.09
2024-01-07T19:17:29.054Z,102109.03
2024-01-07T19:19:57.386Z,102116.13
2024-01-07T19:22:26.954Z,102107.75
2024-01-07T19:24:55.126Z,102124.78
2024-01-07T19:27:24.758Z,102119.72
2024-01-07T19:29:53.057Z,102115.81
2024-01-07T19:32:22.635Z,102134.72
2024-01-07T19:34:52.530Z,102134.97
2024-01-07T19:37:21.768Z,102139.69
2024-01-07T19:39:49.637Z,102143.28
2024-01-07T19:42:17.845Z,102135.63
2024-01-07T19:44:46.116Z,102152.66
2024-01-07T19:47:14.446Z,102172.91
2024-01-07T19:49:44.253Z,102159.06
2024-01-07T19:52:12.548Z,102149.28
2024-01-07T19:54:40.841Z,102173.91
2024-01-07T19:57:09.116Z,102169.44
2024-01-07T19:59:37.831Z,102175.56
2024-01-07T20:02:06.683Z,102168.81
2024-01-07T20:04:35.288Z,102200.63
2024-01-07T20:07:05.987Z,102195.44
2024-01-07T20:09:34.154Z,102198.16
2024-01-07T20:12:02.835Z,102183.34
2024-01-07T20:14:32.638Z,102197.03
2024-01-07T20:17:01.125Z,102195.47
2024-01-07T20:19:29.450Z,102201.16
2024-01-07T20:21:57.620Z,102191.22
2024-01-07T20:24:27.233Z,102195.59
2024-01-07T20:26:55.737Z,102203.44
2024-01-07T20:29:23.997Z,102193.63
2024-01-07T20:31:52.350Z,102197.97
2024-01-07T20:34:21.580Z,102192.34
2024-01-07T20:36:50.764Z,102201.94
2024-01-07T20:39:22.387Z,102208.13
2024-01-07T20:41:51.945Z,102206.47
2024-01-07T20:44:20.064Z,102195.72
2024-01-07T20:46:48.308Z,102218.63
2024-01-07T20:49:16.519Z,102216.31
2024-01-07T20:51:44.756Z,102210.47
2024-01-07T20:54:13.014Z,102217.94
2024-01-07T20:56:42.991Z,102216.66
2024-01-07T20:59:13.374Z,102208.50
2024-01-07T21:01:41.591Z,102197.72
2024-01-07T21:04:09.820Z,102222.94
2024-01-07T21:06:40.903Z,102224.91
2024-01-07T21:09:09.185Z,102228.56
2024-01-07T21:11:37.322Z,102223.41
2024-01-07T21:14:05.602Z,102219.44
2024-01-07T21:16:35.326Z,102216.47
2024-01-07T21:19:03.772Z,102217.28
2024-01-07T21:21:32.106Z,102225.53
2024-01-07T21:24:00.292Z,102216.53
2024-01-07T21:26:31.501Z,102223.69
2024-01-07T21:29:00.297Z,102229.50
2024-01-07T21:31:29.027Z,102225.94
2024-01-07T21:33:58.816Z,102231.09
2024-01-07T21:36:27.384Z,102232.22
2024-01-07T21:38:55.490Z,102229.69
2024-01-07T21:41:23.830Z,102227.34
2024-01-07T21:43:52.241Z,102220.19
2024-01-07T21:46:20.649Z,102229.50
2024-01-07T21:48:49.385Z,102226.53
2024-01-07T21:51:18.932Z,102242.97
2024-01-07T21:53:47.283Z,102230.56
2024-01-07T21:56:15.378Z,102245.31
2024-01-07T21:58:43.436Z,102249.25
2024-01-07T22:01:11.873Z,102259.34
2024-01-07T22:03:39.992Z,102263.72
2024-01-07T22:06:08.477Z,102273.91
2024-01-07T22:08:38.281Z,102262.91
2024-01-07T22:11:10.539Z,102269.66
2024-01-07T22:13:38.631Z,102274.69
2024-01-07T22:16:12.153Z,102282.56
2024-01-07T22:18:40.464Z,102276.84
2024-01-07T22:21:17.582Z,102273.19
2024-01-07T22:23:47.651Z,102282.91
2024-01-07T22:26:16.136Z,102286.84
2024-01-07T22:28:44.847Z,102288.66
2024-01-07T22:31:13.007Z,102299.38
2024-01-07T22:33:41.739Z,102296.16
2024-01-07T22:36:10.628Z,102303.56
2024-01-07T22:38:38.819Z,102304.44
2024-01-07T22:41:08.545Z,102309.28
2024-01-07T22:43:36.780Z,102305.19
2024-01-07T22:46:05.042Z,102297.88
2024-01-07T22:48:35.784Z,102314.69
2024-01-07T22:51:04.015Z,102316.84
2024-01-07T22:53:34.525Z,102318.53
2024-01-07T22:56:04.935Z,102316.09
2024-01-07T22:58:35.612Z,102315.97
2024-01-07T23:01:03.926Z,102323.50
2024-01-07T23:03:32.014Z,102321.09
2024-01-07T23:06:00.056Z,102321.34
2024-01-07T23:08:28.416Z,102322.84
2024-01-07T23:10:56.470Z,102336.91
2024-01-07T23:13:24.487Z,102330.25
2024-01-07T23:15:53.927Z,102332.91
2024-01-07T23:18:22.185Z,102340.59
2024-01-07T23:20:50.336Z,102344.34
2024-01-07T23:23:18.471Z,102323.72
2024-01-07T23:25:46.542Z,102333.00
2024-01-07T23:28:15.304Z,102354.41
2024-01-07T23:30:43.681Z,102350.41
2024-01-07T23:33:13.433Z,102357.66
2024-01-07T23:35:50.514Z,102362.56
2024-01-07T23:38:23.021Z,102350.75
2024-01-07T23:40:51.250Z,102361.53
2024-01-07T23:43:19.355Z,102360.84
2024-01-07T23:45:47.533Z,102363.75
2024-01-07T23:48:17.069Z,102362.84
2024-01-07T23:50:45.159Z,102368.66
2024-01-07T23:53:13.445Z,102377.63
2024-01-07T23:55:41.705Z,102372.41
2024-01-07T23:58:09.877Z,102378.22
